Time;durP1;ratioP1;P1;durP2;ratioP2;P2;SDS_P1;SDS_P2;PMS_P1;PMS_P2;Temp;Humidity;BMP_temperature;BMP_pressure;BME280_temperature;BME280_humidity;BME280_pressure;Samples;Min_cycle;Max_cycle;Signal;HPM_P1;HPM_P2
2023/12/29 00:01:46;;;;;;;;;;;17.60;57.90;;;;;;7398105;19;2960;-73
2023/12/29 00:04:12;;;;;;;;;;;17.60;57.80;;;;;;7393619;19;1846;-74
2023/12/29 00:06:40;;;;;;;;;;;17.60;57.90;;;;;;7394370;19;2712;-73
2023/12/29 00:09:07;;;;;;;;;;;17.50;58.00;;;;;;7393678;19;3264;-73
2023/12/29 00:11:32;;;;;;;;;;;17.50;58.00;;;;;;7393564;19;2768;-74
2023/12/29 00:13:58;;;;;;;;;;;17.50;58.00;;;;;;7395032;19;4217;-74
2023/12/29 00:16:23;;;;;;;;;;;17.40;58.20;;;;;;7399935;19;1065;-74
2023/12/29 00:18:48;;;;;;;;;;;17.40;58.20;;;;;;7395325;19;1832;-74
2023/12/29 00:21:14;;;;;;;;;;;17.30;58.30;;;;;;7394680;19;3559;-74
2023/12/29 00:23:39;;;;;;;;;;;17.30;58.20;;;;;;7395252;19;3169;-73
2023/12/29 00:26:05;;;;;;;;;;;17.30;58.50;;;;;;7396720;19;1962;-74
2023/12/29 00:28:30;;;;;;;;;;;17.20;58.30;;;;;;7394214;19;4004;-74
2023/12/29 00:30:56;;;;;;;;;;;17.20;58.70;;;;;;7393764;19;3848;-73
2023/12/29 00:33:21;;;;;;;;;;;17.20;58.40;;;;;;7399957;19;3259;-74
2023/12/29 00:35:47;;;;;;;;;;;17.20;58.90;;;;;;7394390;19;2846;-74
2023/12/29 00:38:12;;;;;;;;;;;17.20;58.80;;;;;;7396402;19;1572;-74
2023/12/29 00:40:37;;;;;;;;;;;17.10;58.50;;;;;;7394028;19;2007;-74
2023/12/29 00:43:03;;;;;;;;;;;17.10;58.60;;;;;;7393255;19;4134;-74
2023/12/29 00:45:37;;;;;;;;;;;17.10;58.60;;;;;;7394381;19;898;-74
2023/12/29 00:48:03;;;;;;;;;;;17.10;58.70;;;;;;7396828;19;2154;-73
2023/12/29 00:50:28;;;;;;;;;;;17.00;58.60;;;;;;7393562;19;2840;-73
2023/12/29 00:52:54;;;;;;;;;;;17.00;59.00;;;;;;7394193;19;1994;-74
2023/12/29 00:55:19;;;;;;;;;;;17.00;58.90;;;;;;7395927;19;1600;-73
2023/12/29 00:57:45;;;;;;;;;;;17.00;58.90;;;;;;7393588;19;2752;-74
2023/12/29 01:00:11;;;;;;;;;;;16.90;58.90;;;;;;7397373;19;1595;-74
2023/12/29 01:02:36;;;;;;;;;;;17.00;58.90;;;;;;7396831;19;1846;-74
2023/12/29 01:05:01;;;;;;;;;;;16.90;59.10;;;;;;7392804;19;2891;-74
2023/12/29 01:07:27;;;;;;;;;;;16.90;58.90;;;;;;7397053;19;1536;-74
2023/12/29 01:09:52;;;;;;;;;;;16.90;59.30;;;;;;7394148;19;1301;-71
2023/12/29 01:12:18;;;;;;;;;;;16.90;59.20;;;;;;7394737;19;2814;-72
2023/12/29 01:14:43;;;;;;;;;;;16.80;59.20;;;;;;7399500;19;1803;-72
2023/12/29 01:17:09;;;;;;;;;;;16.80;59.30;;;;;;7395755;19;899;-73
2023/12/29 01:19:34;;;;;;;;;;;16.80;59.50;;;;;;7397461;19;3023;-72
2023/12/29 01:21:59;;;;;;;;;;;16.70;59.30;;;;;;7395147;19;833;-73
2023/12/29 01:24:25;;;;;;;;;;;16.70;59.50;;;;;;7392705;19;3572;-72
2023/12/29 01:26:50;;;;;;;;;;;16.70;59.40;;;;;;7393518;19;3730;-72
2023/12/29 01:29:16;;;;;;;;;;;16.70;59.60;;;;;;7393062;19;973;-73
2023/12/29 01:31:41;;;;;;;;;;;16.70;59.60;;;;;;7395459;19;1304;-73
2023/12/29 01:34:07;;;;;;;;;;;16.70;59.60;;;;;;7392800;19;3690;-73
2023/12/29 01:36:32;;;;;;;;;;;16.60;59.60;;;;;;7397598;19;1356;-72
2023/12/29 01:38:57;;;;;;;;;;;16.60;59.60;;;;;;7396455;19;1521;-73
2023/12/29 01:41:23;;;;;;;;;;;16.60;59.60;;;;;;7394606;19;2809;-73
2023/12/29 01:43:57;;;;;;;;;;;16.60;59.60;;;;;;7391847;19;1842;-73
2023/12/29 01:46:24;;;;;;;;;;;16.60;59.90;;;;;;7398372;19;1785;-73
2023/12/29 01:48:49;;;;;;;;;;;16.50;59.60;;;;;;7392886;19;3721;-73
2023/12/29 01:51:15;;;;;;;;;;;16.50;59.90;;;;;;7394334;19;1222;-72
2023/12/29 01:53:40;;;;;;;;;;;16.60;59.70;;;;;;7393550;19;2743;-73
2023/12/29 01:56:06;;;;;;;;;;;16.60;59.80;;;;;;7393420;19;2879;-73
2023/12/29 01:58:31;;;;;;;;;;;16.50;59.90;;;;;;7392495;19;863;-72
2023/12/29 02:00:57;;;;;;;;;;;16.50;59.80;;;;;;7393141;19;859;-72
2023/12/29 02:03:22;;;;;;;;;;;16.50;59.80;;;;;;7392117;19;2722;-73
2023/12/29 02:05:48;;;;;;;;;;;16.50;60.00;;;;;;7392947;19;770;-72
2023/12/29 02:08:13;;;;;;;;;;;16.50;60.00;;;;;;7392436;19;1883;-73
2023/12/29 02:10:39;;;;;;;;;;;16.50;60.70;;;;;;7390696;19;2851;-72
2023/12/29 02:13:04;;;;;;;;;;;16.50;60.00;;;;;;7391973;19;1965;-72
2023/12/29 02:15:29;;;;;;;;;;;16.60;60.00;;;;;;7393923;19;1073;-73
2023/12/29 02:17:57;;;;;;;;;;;16.70;59.50;;;;;;7392724;19;2811;-73
2023/12/29 02:20:23;;;;;;;;;;;16.90;59.00;;;;;;7395023;19;1303;-73
2023/12/29 02:22:50;;;;;;;;;;;17.00;58.60;;;;;;7393121;19;1858;-73
2023/12/29 02:25:16;;;;;;;;;;;17.20;58.40;;;;;;7393939;19;3605;-73
2023/12/29 02:27:50;;;;;;;;;;;17.40;58.00;;;;;;7390936;19;1013;-73
2023/12/29 02:30:36;;;;;;;;;;;17.80;57.30;;;;;;7398842;19;1099;-73
2023/12/29 02:33:04;;;;;;;;;;;18.20;56.50;;;;;;7401974;19;3269;-73
2023/12/29 02:35:38;;;;;;;;;;;18.70;55.40;;;;;;7400560;19;1476;-73
2023/12/29 02:38:03;;;;;;;;;;;19.20;54.30;;;;;;7397195;19;3646;-73
2023/12/29 02:40:29;;;;;;;;;;;19.40;53.80;;;;;;7402256;19;3121;-73
2023/12/29 02:42:54;;;;;;;;;;;19.80;52.90;;;;;;7402159;19;1820;-73
2023/12/29 02:45:20;;;;;;;;;;;19.90;52.80;;;;;;7402476;19;2927;-73
2023/12/29 02:47:45;;;;;;;;;;;20.10;52.20;;;;;;7400823;19;3152;-73
2023/12/29 02:50:11;;;;;;;;;;;20.20;51.80;;;;;;7400871;19;1378;-73
2023/12/29 02:52:36;;;;;;;;;;;20.40;51.50;;;;;;7401362;19;2753;-73
2023/12/29 02:55:02;;;;;;;;;;;20.50;51.50;;;;;;7400783;19;2036;-73
2023/12/29 02:57:27;;;;;;;;;;;20.60;51.10;;;;;;7397323;19;1068;-73
2023/12/29 02:59:52;;;;;;;;;;;20.70;50.90;;;;;;7400188;19;3140;-73
2023/12/29 03:02:18;;;;;;;;;;;20.60;50.70;;;;;;7401952;19;982;-73
2023/12/29 03:04:44;;;;;;;;;;;20.80;50.70;;;;;;7395837;19;1838;-73
2023/12/29 03:07:09;;;;;;;;;;;20.80;50.60;;;;;;7399256;19;2844;-72
2023/12/29 03:09:35;;;;;;;;;;;20.90;50.40;;;;;;7400518;19;3117;-73
2023/12/29 03:12:00;;;;;;;;;;;20.90;50.30;;;;;;7396543;19;907;-73
2023/12/29 03:14:25;;;;;;;;;;;20.90;50.50;;;;;;7398138;19;4374;-73
2023/12/29 03:16:51;;;;;;;;;;;20.80;50.50;;;;;;7400091;19;1650;-73
2023/12/29 03:19:16;;;;;;;;;;;20.90;50.50;;;;;;7399277;19;1388;-73
2023/12/29 03:21:42;;;;;;;;;;;20.80;50.60;;;;;;7397476;19;2740;-71
2023/12/29 03:24:07;;;;;;;;;;;20.60;50.70;;;;;;7395239;19;1837;-72
2023/12/29 03:26:32;;;;;;;;;;;20.60;51.00;;;;;;7396676;19;800;-72
2023/12/29 03:28:58;;;;;;;;;;;20.40;51.10;;;;;;7397977;19;2948;-73
2023/12/29 03:31:23;;;;;;;;;;;20.40;51.50;;;;;;7398768;19;1017;-73
2023/12/29 03:33:49;;;;;;;;;;;20.40;51.40;;;;;;7398997;19;966;-73
2023/12/29 03:36:14;;;;;;;;;;;20.20;51.60;;;;;;7396121;19;3863;-72
2023/12/29 03:38:39;;;;;;;;;;;20.20;51.80;;;;;;7396830;19;808;-73
2023/12/29 03:41:05;;;;;;;;;;;20.20;51.90;;;;;;7393415;19;832;-73
2023/12/29 03:43:30;;;;;;;;;;;20.10;52.00;;;;;;7394784;19;2891;-73
2023/12/29 03:45:56;;;;;;;;;;;20.10;52.00;;;;;;7396197;19;816;-73
2023/12/29 03:48:21;;;;;;;;;;;20.10;52.00;;;;;;7396311;19;1178;-73
2023/12/29 03:50:47;;;;;;;;;;;20.20;51.90;;;;;;7396347;19;3718;-73
2023/12/29 03:53:14;;;;;;;;;;;20.20;51.80;;;;;;7397253;19;1518;-73
2023/12/29 03:55:40;;;;;;;;;;;20.30;51.70;;;;;;7396797;19;3574;-73
2023/12/29 03:58:05;;;;;;;;;;;20.30;51.60;;;;;;7395911;19;2822;-73
2023/12/29 04:00:31;;;;;;;;;;;20.30;51.70;;;;;;7397086;19;2856;-72
2023/12/29 04:02:56;;;;;;;;;;;20.40;51.70;;;;;;7398340;19;2957;-73
2023/12/29 04:05:21;;;;;;;;;;;20.40;51.60;;;;;;7395184;19;3028;-73
2023/12/29 04:07:47;;;;;;;;;;;20.30;51.60;;;;;;7397086;19;1389;-73
2023/12/29 04:10:12;;;;;;;;;;;20.10;51.90;;;;;;7394688;19;1074;-73
2023/12/29 04:12:38;;;;;;;;;;;20.10;52.30;;;;;;7394209;19;2867;-73
2023/12/29 04:15:04;;;;;;;;;;;20.10;51.90;;;;;;7399057;19;1814;-73
2023/12/29 04:17:29;;;;;;;;;;;20.20;51.80;;;;;;7398216;19;1609;-73
2023/12/29 04:19:55;;;;;;;;;;;20.40;51.50;;;;;;7394853;19;3821;-73
2023/12/29 04:22:21;;;;;;;;;;;20.50;51.30;;;;;;7399839;19;1521;-74
2023/12/29 04:24:46;;;;;;;;;;;20.70;51.10;;;;;;7396475;19;1825;-73
2023/12/29 04:27:12;;;;;;;;;;;20.80;50.80;;;;;;7394761;19;3027;-73
2023/12/29 04:29:37;;;;;;;;;;;20.90;50.70;;;;;;7397974;19;1491;-73
2023/12/29 04:32:02;;;;;;;;;;;20.90;50.50;;;;;;7398695;19;1489;-73
2023/12/29 04:34:28;;;;;;;;;;;21.00;50.50;;;;;;7393697;19;2812;-73
2023/12/29 04:36:53;;;;;;;;;;;20.90;50.40;;;;;;7396119;19;3107;-73
2023/12/29 04:39:19;;;;;;;;;;;21.00;50.60;;;;;;7399368;19;1732;-73
2023/12/29 04:41:44;;;;;;;;;;;20.80;50.50;;;;;;7393805;19;2854;-73
2023/12/29 04:44:10;;;;;;;;;;;20.70;50.60;;;;;;7396493;19;1844;-73
2023/12/29 04:46:35;;;;;;;;;;;20.60;50.80;;;;;;7395900;19;1516;-73
2023/12/29 04:49:01;;;;;;;;;;;20.70;50.80;;;;;;7393606;19;3084;-73
2023/12/29 04:51:26;;;;;;;;;;;20.80;50.80;;;;;;7392757;19;982;-73
2023/12/29 04:53:52;;;;;;;;;;;20.80;50.50;;;;;;7393833;19;1076;-73
2023/12/29 04:56:17;;;;;;;;;;;20.80;50.50;;;;;;7394630;19;2785;-73
2023/12/29 04:58:43;;;;;;;;;;;20.90;50.50;;;;;;7396727;19;1430;-73
2023/12/29 05:01:08;;;;;;;;;;;20.90;50.30;;;;;;7391834;19;2736;-73
2023/12/29 05:03:33;;;;;;;;;;;21.00;50.40;;;;;;7394361;19;3932;-73
2023/12/29 05:05:59;;;;;;;;;;;20.80;50.50;;;;;;7398041;19;1464;-72
2023/12/29 05:08:24;;;;;;;;;;;20.60;50.70;;;;;;7396230;19;1550;-73
2023/12/29 05:10:50;;;;;;;;;;;20.60;50.90;;;;;;7395245;19;3157;-73
2023/12/29 05:13:15;;;;;;;;;;;20.40;51.10;;;;;;7393659;19;1804;-73
2023/12/29 05:15:41;;;;;;;;;;;20.30;51.40;;;;;;7396002;19;828;-73
2023/12/29 05:18:06;;;;;;;;;;;20.30;51.50;;;;;;7394284;19;3000;-73
2023/12/29 05:20:33;;;;;;;;;;;20.20;51.40;;;;;;7397180;19;1451;-73
2023/12/29 05:22:58;;;;;;;;;;;20.20;51.60;;;;;;7397658;19;1845;-73
2023/12/29 05:25:24;;;;;;;;;;;20.10;51.70;;;;;;7393635;19;3101;-73
2023/12/29 05:27:49;;;;;;;;;;;20.20;51.90;;;;;;7396766;19;1515;-73
2023/12/29 05:30:15;;;;;;;;;;;20.30;51.50;;;;;;7392843;19;1075;-73
2023/12/29 05:32:41;;;;;;;;;;;20.50;51.30;;;;;;7393756;19;3134;-73
2023/12/29 05:35:06;;;;;;;;;;;20.70;50.90;;;;;;7393301;19;1067;-73
2023/12/29 05:37:32;;;;;;;;;;;20.70;50.50;;;;;;7391785;19;3304;-72
2023/12/29 05:39:57;;;;;;;;;;;20.80;50.50;;;;;;7396343;19;3839;-73
2023/12/29 05:42:23;;;;;;;;;;;21.00;50.10;;;;;;7391767;19;974;-73
2023/12/29 05:44:48;;;;;;;;;;;21.10;50.00;;;;;;7390811;19;1837;-73
2023/12/29 05:47:13;;;;;;;;;;;21.10;49.80;;;;;;7395400;19;2739;-73
2023/12/29 05:49:39;;;;;;;;;;;21.10;49.80;;;;;;7395272;19;1089;-73
2023/12/29 05:52:08;;;;;;;;;;;21.00;49.90;;;;;;7392246;19;1192;-73
2023/12/29 05:54:33;;;;;;;;;;;20.90;50.80;;;;;;7393741;19;2818;-73
2023/12/29 05:56:59;;;;;;;;;;;20.80;50.20;;;;;;7396178;19;1436;-73
2023/12/29 05:59:24;;;;;;;;;;;20.80;50.40;;;;;;7395821;19;1548;-73
2023/12/29 06:01:49;;;;;;;;;;;21.00;50.30;;;;;;7393684;19;2870;-73
2023/12/29 06:04:15;;;;;;;;;;;20.90;50.20;;;;;;7392918;19;3020;-73
2023/12/29 06:06:41;;;;;;;;;;;20.90;50.10;;;;;;7400252;19;3015;-73
2023/12/29 06:09:07;;;;;;;;;;;21.00;49.90;;;;;;7401798;19;2725;-73
2023/12/29 06:11:33;;;;;;;;;;;21.00;50.10;;;;;;7401886;19;1375;-73
2023/12/29 06:13:59;;;;;;;;;;;21.00;50.10;;;;;;7402565;19;1608;-73
2023/12/29 06:16:26;;;;;;;;;;;21.00;49.90;;;;;;7401009;19;3063;-73
2023/12/29 06:18:52;;;;;;;;;;;21.00;50.00;;;;;;7400296;19;1364;-73
2023/12/29 06:21:17;;;;;;;;;;;21.10;49.80;;;;;;7399097;19;862;-73
2023/12/29 06:23:43;;;;;;;;;;;21.10;49.90;;;;;;7401428;19;4303;-73
2023/12/29 06:26:13;;;;;;;;;;;21.20;49.80;;;;;;7403278;19;1547;-73
2023/12/29 06:28:39;;;;;;;;;;;21.20;49.80;;;;;;7401291;19;1551;-73
2023/12/29 06:31:04;;;;;;;;;;;21.10;49.80;;;;;;7400895;19;3795;-73
2023/12/29 06:33:30;;;;;;;;;;;21.00;50.00;;;;;;7402876;19;1430;-73
2023/12/29 06:35:55;;;;;;;;;;;21.00;50.10;;;;;;7397607;19;2624;-73
2023/12/29 06:38:20;;;;;;;;;;;20.70;50.30;;;;;;7402939;19;3126;-73
2023/12/29 06:40:46;;;;;;;;;;;20.40;50.90;;;;;;7401719;19;851;-73
2023/12/29 06:43:11;;;;;;;;;;;20.20;51.40;;;;;;7397624;19;2623;-73
2023/12/29 06:45:37;;;;;;;;;;;20.20;51.50;;;;;;7401963;19;3299;-73
2023/12/29 06:48:03;;;;;;;;;;;20.30;51.20;;;;;;7401959;19;1774;-73
2023/12/29 06:50:28;;;;;;;;;;;20.20;51.40;;;;;;7396956;19;2421;-73
2023/12/29 06:52:53;;;;;;;;;;;20.20;51.70;;;;;;7400891;19;3236;-73
2023/12/29 06:55:19;;;;;;;;;;;20.20;51.60;;;;;;7401248;19;1942;-73
2023/12/29 06:57:44;;;;;;;;;;;20.30;51.60;;;;;;7401016;19;3859;-73
2023/12/29 07:00:10;;;;;;;;;;;20.50;51.20;;;;;;7404483;19;1641;-73
2023/12/29 07:02:37;;;;;;;;;;;20.60;50.70;;;;;;7396630;19;2919;-73
2023/12/29 07:05:03;;;;;;;;;;;20.80;50.50;;;;;;7395692;19;2787;-72
2023/12/29 07:07:30;;;;;;;;;;;20.90;50.40;;;;;;7399884;19;2976;-73
2023/12/29 07:09:55;;;;;;;;;;;21.00;50.30;;;;;;7398772;19;1614;-73
2023/12/29 07:12:21;;;;;;;;;;;21.10;49.80;;;;;;7397789;19;2746;-73
2023/12/29 07:14:46;;;;;;;;;;;21.10;49.90;;;;;;7400322;19;3145;-73
2023/12/29 07:17:11;;;;;;;;;;;21.10;49.90;;;;;;7400582;19;1760;-73
2023/12/29 07:19:37;;;;;;;;;;;21.20;49.80;;;;;;7397612;19;3201;-73
2023/12/29 07:22:03;;;;;;;;;;;21.20;49.90;;;;;;7402322;19;3250;-73
2023/12/29 07:24:29;;;;;;;;;;;21.00;49.90;;;;;;7394820;19;1847;-73
2023/12/29 07:26:54;;;;;;;;;;;20.90;50.20;;;;;;7399179;19;2734;-73
2023/12/29 07:29:20;;;;;;;;;;;21.00;50.40;;;;;;7401698;19;3021;-74
2023/12/29 07:31:45;;;;;;;;;;;20.90;50.30;;;;;;7399845;19;1761;-73
2023/12/29 07:34:10;;;;;;;;;;;21.10;50.10;;;;;;7396239;19;2888;-73
2023/12/29 07:36:39;;;;;;;;;;;21.10;50.00;;;;;;7400634;19;3299;-73
2023/12/29 07:39:04;;;;;;;;;;;21.00;50.10;;;;;;7395756;19;4141;-73
2023/12/29 07:41:30;;;;;;;;;;;21.00;50.20;;;;;;7395046;19;3289;-74
2023/12/29 07:43:55;;;;;;;;;;;20.90;50.10;;;;;;7399564;19;1869;-73
2023/12/29 07:46:25;;;;;;;;;;;20.90;50.20;;;;;;7396343;19;1069;-73
2023/12/29 07:48:50;;;;;;;;;;;20.70;50.40;;;;;;7398093;19;4456;-73
2023/12/29 07:51:16;;;;;;;;;;;20.60;50.70;;;;;;7396395;19;1053;-74
2023/12/29 07:53:41;;;;;;;;;;;20.60;50.80;;;;;;7398817;19;1428;-73
2023/12/29 07:56:07;;;;;;;;;;;20.60;50.90;;;;;;7394614;19;3146;-74
2023/12/29 07:58:32;;;;;;;;;;;20.60;50.90;;;;;;7399294;19;1590;-73
2023/12/29 08:00:58;;;;;;;;;;;20.60;50.90;;;;;;7397913;19;3095;-73
2023/12/29 08:03:23;;;;;;;;;;;20.70;50.70;;;;;;7395099;19;3639;-73
2023/12/29 08:05:48;;;;;;;;;;;20.80;50.40;;;;;;7401056;19;1537;-73
2023/12/29 08:08:14;;;;;;;;;;;21.00;50.20;;;;;;7394658;19;1973;-74
2023/12/29 08:10:40;;;;;;;;;;;21.10;50.10;;;;;;7396118;19;2896;-74
2023/12/29 08:13:08;;;;;;;;;;;21.10;49.80;;;;;;7398714;19;1653;-73
2023/12/29 08:15:34;;;;;;;;;;;21.10;49.90;;;;;;7396965;19;3294;-74
2023/12/29 08:17:59;;;;;;;;;;;21.20;49.90;;;;;;7393988;19;3031;-72
2023/12/29 08:20:25;;;;;;;;;;;21.10;49.80;;;;;;7399691;19;1573;-73
2023/12/29 08:22:50;;;;;;;;;;;21.10;49.80;;;;;;7397672;19;3670;-74
2023/12/29 08:25:16;;;;;;;;;;;21.20;49.90;;;;;;7393678;19;3033;-74
2023/12/29 08:27:41;;;;;;;;;;;21.20;49.90;;;;;;7396978;19;1482;-74
2023/12/29 08:30:07;;;;;;;;;;;21.20;49.70;;;;;;7397490;19;1513;-74
2023/12/29 08:32:33;;;;;;;;;;;21.30;49.60;;;;;;7397878;19;4515;-74
2023/12/29 08:34:58;;;;;;;;;;;21.10;49.60;;;;;;7399991;19;1662;-74
2023/12/29 08:37:24;;;;;;;;;;;21.00;49.90;;;;;;7394576;19;1446;-74
2023/12/29 08:39:49;;;;;;;;;;;21.00;50.00;;;;;;7393742;19;4182;-74
2023/12/29 08:42:15;;;;;;;;;;;20.90;50.10;;;;;;7396229;19;1557;-74
2023/12/29 08:44:40;;;;;;;;;;;20.70;50.30;;;;;;7395698;19;1867;-74
2023/12/29 08:47:08;;;;;;;;;;;20.70;50.70;;;;;;7395120;19;3111;-74
2023/12/29 08:49:34;;;;;;;;;;;20.60;50.70;;;;;;7398392;19;1888;-74
2023/12/29 08:51:59;;;;;;;;;;;20.60;50.90;;;;;;7397184;19;1643;-74
2023/12/29 08:54:25;;;;;;;;;;;20.60;51.00;;;;;;7396103;19;3821;-73
2023/12/29 08:56:50;;;;;;;;;;;20.50;50.90;;;;;;7396519;19;2952;-74
2023/12/29 08:59:15;;;;;;;;;;;20.40;51.20;;;;;;7395173;19;2850;-74
2023/12/29 09:01:41;;;;;;;;;;;20.30;52.00;;;;;;7394052;19;2827;-74
2023/12/29 09:04:06;;;;;;;;;;;20.30;51.40;;;;;;7392122;19;2591;-74
2023/12/29 09:06:32;;;;;;;;;;;20.40;51.40;;;;;;7395254;19;3177;-74
2023/12/29 09:08:58;;;;;;;;;;;20.40;51.20;;;;;;7394537;19;2869;-73
2023/12/29 09:11:23;;;;;;;;;;;20.40;51.10;;;;;;7397886;19;1575;-74
2023/12/29 09:13:49;;;;;;;;;;;20.40;51.10;;;;;;7397189;19;1405;-74
2023/12/29 09:16:14;;;;;;;;;;;20.50;51.20;;;;;;7394432;19;3204;-74
2023/12/29 09:18:39;;;;;;;;;;;20.50;51.20;;;;;;7394458;19;1440;-74
2023/12/29 09:21:05;;;;;;;;;;;20.50;51.00;;;;;;7394047;19;1805;-74
2023/12/29 09:23:30;;;;;;;;;;;20.70;51.00;;;;;;7394572;19;2822;-74
2023/12/29 09:25:56;;;;;;;;;;;20.80;50.60;;;;;;7392841;19;804;-74
2023/12/29 09:28:21;;;;;;;;;;;21.00;50.60;;;;;;7393415;19;1168;-74
2023/12/29 09:30:46;;;;;;;;;;;21.10;50.30;;;;;;7394703;19;2893;-74
2023/12/29 09:33:12;;;;;;;;;;;21.00;50.20;;;;;;7396898;19;2721;-74
2023/12/29 09:35:38;;;;;;;;;;;21.10;50.10;;;;;;7393357;19;902;-74
2023/12/29 09:38:04;;;;;;;;;;;21.20;49.90;;;;;;7397996;19;4271;-74
2023/12/29 09:40:29;;;;;;;;;;;21.00;49.90;;;;;;7401711;19;2824;-74
2023/12/29 09:42:55;;;;;;;;;;;21.00;50.10;;;;;;7402069;19;1863;-73
2023/12/29 09:45:23;;;;;;;;;;;20.90;50.20;;;;;;7402509;19;2908;-74
2023/12/29 09:47:48;;;;;;;;;;;21.00;50.40;;;;;;7403598;19;795;-74
2023/12/29 09:50:14;;;;;;;;;;;21.10;50.30;;;;;;7404224;19;1431;-74
2023/12/29 09:52:39;;;;;;;;;;;21.10;50.20;;;;;;7402215;19;2884;-74
2023/12/29 09:55:06;;;;;;;;;;;21.10;50.20;;;;;;7400498;19;825;-74
2023/12/29 09:57:33;;;;;;;;;;;21.00;50.30;;;;;;7403167;19;1391;-74
2023/12/29 09:59:58;;;;;;;;;;;21.00;50.50;;;;;;7401113;19;3157;-74
2023/12/29 10:02:23;;;;;;;;;;;21.00;50.60;;;;;;7401076;19;3053;-74
2023/12/29 10:04:49;;;;;;;;;;;20.90;50.50;;;;;;7395665;19;4486;-74
2023/12/29 10:07:20;;;;;;;;;;;20.90;50.60;;;;;;7399050;19;3386;-74
2023/12/29 10:09:45;;;;;;;;;;;21.00;50.60;;;;;;7402010;19;1416;-74
2023/12/29 10:12:11;;;;;;;;;;;21.00;50.50;;;;;;7398722;19;1600;-74
2023/12/29 10:14:47;;;;;;;;;;;21.00;50.50;;;;;;7399896;19;2799;-74
2023/12/29 10:17:14;;;;;;;;;;;20.90;50.60;;;;;;7402218;19;2328;-74
2023/12/29 10:19:40;;;;;;;;;;;20.70;50.90;;;;;;7400903;19;1567;-74
2023/12/29 10:22:06;;;;;;;;;;;20.60;51.00;;;;;;7400070;19;4229;-75
2023/12/29 10:24:32;;;;;;;;;;;20.60;51.30;;;;;;7396996;19;2787;-74
2023/12/29 10:26:57;;;;;;;;;;;20.50;51.40;;;;;;7399096;19;3836;-74
2023/12/29 10:29:23;;;;;;;;;;;20.60;51.50;;;;;;7401026;19;2995;-75
2023/12/29 10:31:49;;;;;;;;;;;20.70;51.20;;;;;;7401291;19;1275;-74
2023/12/29 10:34:31;;;;;;;;;;;21.00;50.90;;;;;;7398199;19;2038;-74
2023/12/29 10:36:57;;;;;;;;;;;21.00;50.50;;;;;;7402446;19;2796;-74
2023/12/29 10:39:23;;;;;;;;;;;21.20;50.30;;;;;;7400407;19;2797;-74
2023/12/29 10:41:49;;;;;;;;;;;21.20;50.10;;;;;;7398695;19;3883;-74
2023/12/29 10:44:15;;;;;;;;;;;21.30;50.80;;;;;;7397685;19;3295;-74
2023/12/29 10:46:40;;;;;;;;;;;21.30;49.90;;;;;;7402494;19;3301;-74
2023/12/29 10:49:08;;;;;;;;;;;21.30;49.90;;;;;;7401048;19;2623;-74
2023/12/29 10:51:33;;;;;;;;;;;21.20;50.20;;;;;;7399294;19;3211;-74
2023/12/29 10:53:58;;;;;;;;;;;21.10;50.30;;;;;;7401203;19;1579;-74
2023/12/29 10:56:24;;;;;;;;;;;21.10;50.40;;;;;;7399380;19;2640;-74
2023/12/29 10:58:59;;;;;;;;;;;21.00;51.00;;;;;;7397026;19;3949;-75
2023/12/29 11:01:25;;;;;;;;;;;20.80;51.50;;;;;;7394209;19;3893;-74
2023/12/29 11:03:58;;;;;;;;;;;20.80;52.00;;;;;;7386334;19;4052;-74
2023/12/29 11:06:23;;;;;;;;;;;20.80;51.90;;;;;;7393335;19;3452;-74
2023/12/29 11:08:49;;;;;;;;;;;21.00;52.50;;;;;;7394987;19;1623;-74
2023/12/29 11:11:14;;;;;;;;;;;21.20;51.70;;;;;;7399444;19;2878;-74
2023/12/29 11:13:40;;;;;;;;;;;21.40;51.20;;;;;;7400105;19;1708;-75
2023/12/29 11:16:05;;;;;;;;;;;21.80;51.50;;;;;;7399022;19;2121;-74
2023/12/29 11:18:31;;;;;;;;;;;21.90;50.40;;;;;;7399349;19;2852;-74
2023/12/29 11:20:56;;;;;;;;;;;21.90;50.30;;;;;;7397752;19;2949;-74
2023/12/29 11:23:22;;;;;;;;;;;21.90;50.90;;;;;;7394667;19;2689;-75
2023/12/29 11:25:48;;;;;;;;;;;22.10;50.10;;;;;;7398529;19;2782;-75
2023/12/29 11:28:14;;;;;;;;;;;22.20;49.80;;;;;;7400795;19;3113;-75
2023/12/29 11:30:39;;;;;;;;;;;22.20;49.60;;;;;;7399053;19;1626;-75
2023/12/29 11:33:05;;;;;;;;;;;22.40;49.60;;;;;;7397892;19;3546;-75
2023/12/29 11:35:34;;;;;;;;;;;22.60;49.20;;;;;;7400708;19;2900;-75
2023/12/29 11:38:03;;;;;;;;;;;22.70;49.10;;;;;;7401294;19;1560;-75
2023/12/29 11:40:31;;;;;;;;;;;22.70;48.90;;;;;;7395424;19;2961;-75
2023/12/29 11:42:57;;;;;;;;;;;22.70;48.90;;;;;;7396787;19;2616;-75
2023/12/29 11:45:23;;;;;;;;;;;22.80;48.70;;;;;;7395920;19;2869;-74
2023/12/29 11:47:53;;;;;;;;;;;22.90;48.70;;;;;;7394945;19;2940;-75
2023/12/29 11:50:27;;;;;;;;;;;22.80;48.70;;;;;;7401182;19;1583;-75
2023/12/29 11:52:52;;;;;;;;;;;22.80;48.70;;;;;;7398829;19;2892;-75
2023/12/29 11:55:19;;;;;;;;;;;22.80;48.70;;;;;;7396060;19;3521;-75
2023/12/29 11:57:45;;;;;;;;;;;22.90;48.80;;;;;;7397325;19;1795;-75
2023/12/29 12:00:11;;;;;;;;;;;22.80;49.00;;;;;;7399007;19;1664;-75
2023/12/29 12:02:36;;;;;;;;;;;22.80;49.00;;;;;;7395860;19;3888;-75
2023/12/29 12:05:02;;;;;;;;;;;22.60;49.10;;;;;;7395526;19;1845;-75
2023/12/29 12:07:28;;;;;;;;;;;22.60;49.30;;;;;;7397343;19;2235;-75
2023/12/29 12:10:16;;;;;;;;;;;22.50;49.50;;;;;;7393228;19;3058;-75
2023/12/29 12:12:42;;;;;;;;;;;22.50;49.30;;;;;;7398478;19;1969;-75
2023/12/29 12:15:28;;;;;;;;;;;22.60;49.50;;;;;;7396043;19;1014;-75
2023/12/29 12:17:53;;;;;;;;;;;22.70;49.30;;;;;;7397376;19;3903;-75
2023/12/29 12:20:19;;;;;;;;;;;22.70;49.10;;;;;;7398551;19;1523;-75
2023/12/29 12:22:45;;;;;;;;;;;22.60;49.40;;;;;;7395314;19;2795;-75
2023/12/29 12:25:11;;;;;;;;;;;22.60;49.50;;;;;;7393355;19;2685;-74
2023/12/29 12:27:37;;;;;;;;;;;22.60;49.50;;;;;;7395418;19;2151;-75
2023/12/29 12:30:02;;;;;;;;;;;22.50;49.50;;;;;;7399515;19;1436;-75
2023/12/29 12:32:28;;;;;;;;;;;22.30;49.90;;;;;;7395196;19;3487;-75
2023/12/29 12:34:54;;;;;;;;;;;22.30;50.00;;;;;;7395403;19;1602;-75
2023/12/29 12:37:29;;;;;;;;;;;22.20;50.20;;;;;;7394283;19;1022;-75
2023/12/29 12:39:55;;;;;;;;;;;22.00;50.50;;;;;;7396048;19;1443;-75
2023/12/29 12:42:21;;;;;;;;;;;21.80;50.80;;;;;;7395207;19;2420;-74
2023/12/29 12:44:56;;;;;;;;;;;21.80;51.20;;;;;;7395069;19;1830;-75
2023/12/29 12:47:42;;;;;;;;;;;21.90;50.90;;;;;;7395371;19;1618;-75
2023/12/29 12:50:09;;;;;;;;;;;22.00;50.70;;;;;;7398625;19;3333;-74
2023/12/29 12:52:35;;;;;;;;;;;22.10;51.00;;;;;;7402733;19;1242;-75
2023/12/29 12:55:01;;;;;;;;;;;22.30;50.50;;;;;;7399542;19;1611;-75
2023/12/29 12:57:26;;;;;;;;;;;22.40;50.20;;;;;;7399973;19;1493;-75
2023/12/29 12:59:52;;;;;;;;;;;22.40;50.00;;;;;;7393058;19;2340;-74
2023/12/29 13:02:17;;;;;;;;;;;22.60;49.60;;;;;;7396825;19;1293;-75
2023/12/29 13:04:43;;;;;;;;;;;22.70;49.40;;;;;;7392766;19;1838;-75
2023/12/29 13:07:08;;;;;;;;;;;22.70;49.20;;;;;;7393906;19;1295;-75
2023/12/29 13:09:35;;;;;;;;;;;22.70;49.10;;;;;;7394161;19;2430;-76
2023/12/29 13:12:10;;;;;;;;;;;22.80;49.00;;;;;;7395669;19;1614;-75
2023/12/29 13:14:36;;;;;;;;;;;22.90;48.90;;;;;;7394289;19;868;-75
2023/12/29 13:17:05;;;;;;;;;;;22.90;48.70;;;;;;7395607;19;1523;-75
2023/12/29 13:19:30;;;;;;;;;;;22.80;48.70;;;;;;7396758;19;1539;-76
2023/12/29 13:21:56;;;;;;;;;;;22.80;48.80;;;;;;7395961;19;1403;-75
2023/12/29 13:24:22;;;;;;;;;;;22.70;49.10;;;;;;7396221;19;1858;-75
2023/12/29 13:26:52;;;;;;;;;;;22.50;49.40;;;;;;7394416;19;1017;-75
2023/12/29 13:29:21;;;;;;;;;;;22.50;49.40;;;;;;7393247;19;1257;-75
2023/12/29 13:31:47;;;;;;;;;;;22.60;49.40;;;;;;7397834;19;1645;-75
2023/12/29 13:34:13;;;;;;;;;;;22.70;49.10;;;;;;7392556;19;1033;-75
2023/12/29 13:36:43;;;;;;;;;;;22.70;49.10;;;;;;7392968;19;831;-75
2023/12/29 13:39:09;;;;;;;;;;;22.60;49.20;;;;;;7392746;19;1079;-75
2023/12/29 13:41:35;;;;;;;;;;;22.60;49.10;;;;;;7393340;19;1288;-75
2023/12/29 13:44:00;;;;;;;;;;;22.60;49.50;;;;;;7392327;19;1850;-75
2023/12/29 13:46:26;;;;;;;;;;;22.50;49.50;;;;;;7395452;19;1525;-75
2023/12/29 13:48:51;;;;;;;;;;;22.40;49.60;;;;;;7396098;19;1503;-75
2023/12/29 13:51:17;;;;;;;;;;;22.40;49.70;;;;;;7396424;19;1737;-75
2023/12/29 13:53:42;;;;;;;;;;;22.40;49.80;;;;;;7392931;19;776;-75
2023/12/29 13:56:08;;;;;;;;;;;22.30;49.70;;;;;;7392652;19;1404;-75
2023/12/29 13:58:33;;;;;;;;;;;22.30;49.70;;;;;;7397276;19;1307;-75
2023/12/29 14:00:59;;;;;;;;;;;22.40;49.70;;;;;;7392953;19;1535;-75
2023/12/29 14:03:34;;;;;;;;;;;22.50;49.50;;;;;;7393202;19;1842;-75
2023/12/29 14:06:00;;;;;;;;;;;22.60;49.40;;;;;;7392158;19;851;-75
2023/12/29 14:08:26;;;;;;;;;;;22.70;49.10;;;;;;7390573;19;1632;-74
2023/12/29 14:10:53;;;;;;;;;;;22.80;48.90;;;;;;7393099;19;2827;-74
2023/12/29 14:13:18;;;;;;;;;;;22.80;48.80;;;;;;7394423;19;1482;-75
2023/12/29 14:15:47;;;;;;;;;;;22.90;49.50;;;;;;7391770;19;1399;-75
2023/12/29 14:18:12;;;;;;;;;;;22.90;48.70;;;;;;7393354;19;854;-74
2023/12/29 14:20:40;;;;;;;;;;;22.90;48.70;;;;;;7397182;19;1441;-74
2023/12/29 14:23:06;;;;;;;;;;;22.90;48.70;;;;;;7392016;19;1840;-74
2023/12/29 14:25:35;;;;;;;;;;;23.00;48.60;;;;;;7398000;19;859;-75